.
WxDataArchive / Data Records for 2014-05-18
2014-05-17 May 2014 2014-05-19

Data Records for Sunday, 18 May 2014

Time	Temp	Chill	HIndex	Humid	Dewpt	 Wind 	HiWind	WindDir	Rain 	Barom
-----	----	-----	------	-----	-----	------	------	-------	-----	-----
00:00	44.6	44.6	44.6	79	38.5	0	0	---	0.00	30.213 
00:05	44.5	44.5	44.5	79	38.4	0	0	---	0.00	30.213 
00:10	44.5	44.5	44.5	79	38.4	0	0	---	0.00	30.213 
00:15	44.3	44.3	44.3	79	38.2	0	0	---	0.00	30.217 
00:20	44.2	44.2	44.2	80	38.4	0	0	---	0.00	30.217 
00:25	44.2	44.2	44.2	80	38.4	0	0	---	0.00	30.217 
00:30	44.1	44.1	44.1	80	38.3	0	0	---	0.00	30.218 
00:35	43.8	43.8	43.8	81	38.4	0	0	---	0.00	30.218 
00:40	43.6	43.6	43.6	81	38.2	0	0	---	0.00	30.218 
00:45	43.5	43.5	43.5	81	38.1	0	0	---	0.00	30.219 
00:50	43.3	43.3	43.3	81	37.9	0	0	---	0.00	30.219 
00:55	43.2	43.2	43.2	81	37.8	0	0	---	0.00	30.219 
01:00	43.1	43.1	43.1	82	38.0	0	0	---	0.00	30.219 
01:05	42.9	42.9	42.9	82	37.8	0	0	---	0.00	30.219 
01:10	42.8	42.8	42.8	83	38.0	0	0	---	0.00	30.219 
01:15	42.6	42.6	42.6	83	37.8	0	0	---	0.00	30.214 
01:20	42.3	42.3	42.3	83	37.5	0	0	---	0.00	30.214 
01:25	42.2	42.2	42.2	83	37.4	0	0	---	0.00	30.214 
01:30	42.1	42.1	42.1	84	37.6	0	0	---	0.00	30.215 
01:35	41.9	41.9	41.9	84	37.4	0	0	---	0.00	30.215 
01:40	41.8	41.8	41.8	84	37.3	0	0	---	0.00	30.215 
01:45	41.6	41.6	41.6	84	37.1	0	0	---	0.00	30.215 
01:50	41.3	41.3	41.3	84	36.8	0	0	---	0.00	30.215 
01:55	41.2	41.2	41.2	85	37.0	0	0	---	0.00	30.215 
02:00	41.1	41.1	41.1	85	36.9	0	0	---	0.00	30.218 
02:05	40.9	40.9	40.9	85	36.7	0	0	---	0.00	30.218 
02:10	40.8	40.8	40.8	85	36.6	0	0	---	0.00	30.218 
02:15	40.5	40.5	40.5	86	36.6	0	0	---	0.00	30.218 
02:20	40.3	40.3	40.3	86	36.5	0	0	---	0.00	30.218 
02:25	40.1	40.1	40.1	86	36.3	0	0	---	0.00	30.218 
02:30	39.9	39.9	39.9	86	36.1	0	0	---	0.00	30.217 
02:35	39.8	39.8	39.8	87	36.3	0	0	---	0.00	30.217 
02:40	39.6	39.6	39.6	87	36.1	0	0	---	0.00	30.217 
02:45	39.5	39.5	39.5	87	36.0	0	0	---	0.00	30.217 
02:50	39.3	39.3	39.3	87	35.8	0	0	---	0.00	30.217 
02:55	39.2	39.2	39.2	87	35.7	0	0	---	0.00	30.217 
03:00	39.1	39.1	39.1	88	35.9	0	0	---	0.00	30.219 
03:05	39.1	39.1	39.1	88	35.9	0	0	---	0.00	30.219 
03:10	38.9	38.9	38.9	88	35.7	0	0	---	0.00	30.219 
03:15	38.8	38.8	38.8	88	35.6	0	0	---	0.00	30.219 
03:20	38.6	38.6	38.6	88	35.4	0	0	---	0.00	30.219 
03:25	38.5	38.5	38.5	88	35.3	0	0	---	0.00	30.219 
03:30	38.3	38.3	38.3	88	35.1	0	0	---	0.00	30.220 
03:35	38.2	38.2	38.2	89	35.2	0	0	---	0.00	30.220 
03:40	38.2	38.2	38.2	89	35.2	0	0	---	0.00	30.220 
03:45	38.0	38.0	38.0	89	35.1	0	0	---	0.00	30.221 
03:50	37.9	37.9	37.9	89	35.0	0	0	---	0.00	30.221 
03:55	37.8	37.8	37.8	89	34.9	0	0	---	0.00	30.221 
04:00	37.8	37.8	37.8	89	34.9	0	0	---	0.00	30.223 
04:05	37.6	37.6	37.6	90	34.9	0	0	---	0.00	30.223 
04:10	37.6	37.6	37.6	90	34.9	0	0	---	0.00	30.223 
04:15	37.5	37.5	37.5	90	34.8	0	0	---	0.00	30.231 
04:20	37.3	37.3	37.3	90	34.6	0	0	---	0.00	30.231 
04:25	37.3	37.3	37.3	90	34.6	0	0	---	0.00	30.231 
04:30	37.2	37.2	37.2	90	34.5	0	0	---	0.00	30.233 
04:35	37.2	37.2	37.2	90	34.5	0	0	---	0.00	30.233 
04:40	37.2	37.2	37.2	91	34.8	0	0	---	0.00	30.233 
04:45	37.2	37.2	37.2	91	34.8	0	0	---	0.00	30.235 
04:50	37.2	37.2	37.2	91	34.8	0	0	---	0.00	30.235 
04:55	37.2	37.2	37.2	91	34.8	0	0	---	0.00	30.235 
05:00	37.3	37.3	37.3	91	34.9	0	0	---	0.00	30.235 
05:05	37.3	37.3	37.3	91	34.9	0	0	---	0.00	30.235 
05:10	37.3	37.3	37.3	91	34.9	0	0	---	0.00	30.235 
05:15	37.3	37.3	37.3	91	34.9	0	0	---	0.00	30.236 
05:20	37.3	37.3	37.3	92	35.2	0	0	---	0.00	30.236 
05:25	37.3	37.3	37.3	92	35.2	0	0	---	0.00	30.236 
05:30	37.5	37.5	37.5	92	35.4	0	0	---	0.00	30.237 
05:35	37.5	37.5	37.5	92	35.4	0	0	---	0.00	30.237 
05:40	37.5	37.5	37.5	92	35.4	0	0	---	0.00	30.237 
05:45	37.6	37.6	37.6	92	35.5	0	0	---	0.00	30.237 
05:50	37.5	37.5	37.5	92	35.4	0	0	---	0.00	30.237 
05:55	37.5	37.5	37.5	92	35.4	0	0	---	0.00	30.237 
06:00	37.3	37.3	37.3	92	35.2	0	0	---	0.00	30.242 
06:05	37.3	37.3	37.3	92	35.2	0	0	---	0.00	30.242 
06:10	37.3	37.3	37.3	92	35.2	0	0	---	0.00	30.242 
06:15	37.3	37.3	37.3	92	35.2	0	0	---	0.00	30.249 
06:20	37.2	37.2	37.2	92	35.1	0	0	---	0.00	30.249 
06:25	37.2	37.2	37.2	92	35.1	0	0	---	0.00	30.249 
06:30	37.2	37.2	37.2	92	35.1	0	0	---	0.00	30.248 
06:35	37.0	37.0	37.0	92	34.9	0	0	---	0.00	30.248 
06:40	36.9	36.9	36.9	92	34.8	0	0	---	0.00	30.248 
06:45	36.9	36.9	36.9	92	34.8	0	0	---	0.00	30.252 
06:50	37.0	37.0	37.0	92	34.9	0	0	---	0.00	30.252 
06:55	37.2	37.2	37.2	92	35.1	0	0	---	0.00	30.252 
07:00	37.3	37.3	37.3	92	35.2	0	0	---	0.00	30.255 
07:05	37.5	37.5	37.5	92	35.4	0	0	---	0.00	30.255 
07:10	37.8	37.8	37.8	92	35.7	0	0	---	0.00	30.255 
07:15	38.2	38.2	38.2	93	36.4	0	0	---	0.00	30.261 
07:20	38.6	38.6	38.6	93	36.8	0	0	---	0.00	30.261 
07:25	39.1	39.1	39.1	93	37.2	0	0	---	0.00	30.261 
07:30	39.6	39.6	39.6	93	37.7	0	0	---	0.00	30.265 
07:35	40.5	40.5	40.5	93	38.6	0	0	---	0.00	30.265 
07:40	41.5	41.5	41.5	93	39.6	0	0	---	0.00	30.265 
07:45	42.3	42.3	42.3	92	40.1	0	0	---	0.00	30.264 
07:50	43.2	43.2	43.2	92	41.0	0	1	270	0.00	30.264 
07:55	43.9	43.9	43.9	90	41.2	0	1	270	0.00	30.264 
08:00	44.6	44.6	44.6	88	41.3	0	1	270	0.00	30.261 
08:05	45.5	45.5	45.5	85	41.3	0	1	270	0.00	30.261 
08:10	46.4	46.4	46.4	82	41.2	0	0	---	0.00	30.261 
08:15	47.1	47.1	47.1	79	40.9	0	1	270	0.00	30.265 
08:20	48.0	48.0	48.0	76	40.8	0	1	270	0.00	30.265 
08:25	48.8	48.8	48.8	74	40.9	0	1	270	0.00	30.265 
08:30	49.4	49.4	49.4	69	39.7	0	2	270	0.00	30.268 
08:35	49.8	49.8	49.8	68	39.7	0	2	270	0.00	30.268 
08:40	50.1	50.1	50.1	65	38.8	1	3	270	0.00	30.268 
08:45	50.2	50.2	50.2	65	38.9	1	3	270	0.00	30.272 
08:50	50.4	50.4	50.4	65	39.1	1	2	270	0.00	30.272 
08:55	51.0	51.0	51.0	65	39.7	0	1	270	0.00	30.272 
09:00	51.4	51.4	51.4	64	39.6	0	2	270	0.00	30.273 
09:05	52.0	52.0	52.0	63	39.8	0	2	270	0.00	30.273 
09:10	52.5	52.5	52.5	62	39.9	0	1	270	0.00	30.273 
09:15	52.9	52.9	52.9	60	39.4	0	1	270	0.00	30.276 
09:20	53.3	53.3	53.3	59	39.3	0	2	270	0.00	30.276 
09:25	53.8	53.8	53.8	58	39.4	0	1	270	0.00	30.276 
09:30	54.1	54.1	54.1	56	38.8	1	3	270	0.00	30.278 
09:35	54.2	54.2	54.2	57	39.3	1	3	270	0.00	30.278 
09:40	54.2	54.2	54.2	55	38.4	1	3	270	0.00	30.278 
09:45	54.7	54.7	54.7	58	40.2	0	2	270	0.00	30.280 
09:50	55.3	55.3	55.3	56	39.9	0	3	270	0.00	30.280 
09:55	55.4	55.4	55.4	53	38.6	1	3	270	0.00	30.280 
10:00	55.7	55.7	55.7	54	39.3	1	2	270	0.00	30.281 
10:05	56.0	56.0	56.0	53	39.1	0	3	270	0.00	30.281 
10:10	56.2	56.2	56.2	50	37.8	1	3	270	0.00	30.281 
10:15	56.3	56.3	56.3	51	38.4	1	3	270	0.00	30.279 
10:20	56.5	56.5	56.5	50	38.1	1	3	270	0.00	30.279 
10:25	56.7	56.7	56.7	48	37.2	1	3	270	0.00	30.279 
10:30	57.0	57.0	57.0	48	37.5	1	5	292	0.00	30.282 
10:35	57.3	57.3	57.3	49	38.3	1	2	292	0.00	30.282 
10:40	57.6	57.6	57.6	47	37.5	1	2	292	0.00	30.282 
10:45	58.0	58.0	58.0	49	38.9	1	3	292	0.00	30.283 
10:50	58.3	58.3	58.3	48	38.7	1	3	292	0.00	30.283 
10:55	58.9	58.9	58.9	48	39.2	0	2	292	0.00	30.283 
11:00	58.7	58.7	58.7	44	36.8	2	4	292	0.00	30.284 
11:05	58.6	58.6	58.6	43	36.2	1	3	292	0.00	30.284 
11:10	58.9	58.9	58.9	46	38.2	1	3	292	0.00	30.284 
11:15	59.2	59.2	59.2	48	39.5	1	3	292	0.00	30.285 
11:20	59.2	59.2	59.2	43	36.7	2	4	292	0.00	30.285 
11:25	59.0	59.0	59.0	43	36.5	1	3	292	0.00	30.285 
11:30	59.3	59.3	59.3	46	38.5	1	3	292	0.00	30.284 
11:35	59.5	59.5	59.5	43	37.0	1	5	292	0.00	30.284 
11:40	59.8	59.8	59.8	43	37.3	1	3	292	0.00	30.284 
11:45	60.5	60.5	60.5	44	38.5	0	2	292	0.00	30.285 
11:50	60.5	60.5	60.5	39	35.4	1	4	292	0.00	30.285 
11:55	60.5	60.5	60.5	40	36.1	1	3	292	0.00	30.285 
12:00	60.4	60.4	60.4	37	34.0	0	2	292	0.00	30.283 
12:05	59.8	59.8	59.8	38	34.1	1	2	292	0.00	30.283 
12:10	59.0	59.0	59.0	39	34.1	0	3	292	0.00	30.283 
12:15	58.9	58.9	58.9	37	32.7	0	2	292	0.00	30.283 
12:20	58.6	58.6	58.6	36	31.7	1	4	292	0.00	30.283 
12:25	58.4	58.4	58.4	40	34.2	0	1	292	0.00	30.283 
12:30	59.5	59.5	59.5	39	34.5	1	3	292	0.00	30.278 
12:35	59.6	59.6	59.6	37	33.3	1	2	292	0.00	30.278 
12:40	60.2	60.2	60.2	39	35.2	0	1	292	0.00	30.278 
12:45	60.7	60.7	60.7	39	35.6	1	3	292	0.00	30.274 
12:50	60.1	60.1	60.1	38	34.4	1	2	292	0.00	30.274 
12:55	60.1	60.1	60.1	38	34.4	1	3	292	0.00	30.274 
13:00	60.7	60.7	60.7	41	36.9	1	3	292	0.00	30.272 
13:05	61.5	61.5	61.5	37	35.0	1	2	292	0.00	30.272 
13:10	61.2	61.2	61.2	33	31.9	1	6	338	0.00	30.272 
13:15	61.3	61.3	61.3	33	32.0	1	4	338	0.00	30.272 
13:20	60.7	60.7	60.7	33	31.4	1	2	292	0.00	30.272 
13:25	61.5	61.5	61.5	39	36.3	1	4	292	0.00	30.272 
13:30	62.3	62.3	62.3	35	34.3	1	3	45	0.00	30.264 
13:35	63.2	63.2	63.2	39	37.8	1	2	22	0.00	30.264 
13:40	63.4	63.4	63.4	38	37.3	0	2	0	0.00	30.264 
13:45	63.7	63.7	63.7	37	36.9	1	3	0	0.00	30.257 
13:50	63.7	63.7	63.7	33	34.1	1	3	292	0.00	30.257 
13:55	63.4	63.4	63.4	37	36.7	0	3	292	0.00	30.257 
14:00	63.5	63.5	63.5	35	35.4	1	5	292	0.00	30.255 
14:05	63.9	63.9	63.9	34	35.0	1	6	112	0.00	30.255 
14:10	64.3	64.3	64.3	35	36.1	1	2	292	0.00	30.255 
14:15	64.5	64.5	64.5	31	33.2	1	3	292	0.00	30.255 
14:20	64.7	64.7	64.7	33	34.9	1	3	292	0.00	30.255 
14:25	64.7	64.7	64.7	31	33.4	1	2	292	0.00	30.255 
14:30	64.5	64.5	64.5	31	33.2	1	2	292	0.00	30.251 
14:35	64.3	64.3	64.3	31	33.0	0	3	292	0.00	30.251 
14:40	63.9	63.9	63.9	29	31.0	0	2	292	0.00	30.251 
14:45	62.9	62.9	62.9	31	31.8	0	1	292	0.00	30.251 
14:50	63.2	63.2	63.2	32	32.9	0	1	292	0.00	30.251 
14:55	64.2	64.2	64.2	33	34.5	0	2	292	0.00	30.251 
15:00	64.5	64.5	64.5	33	34.8	1	3	68	0.00	30.248 
15:05	64.3	64.3	64.3	31	33.0	1	3	45	0.00	30.248 
15:10	63.7	63.7	63.7	29	30.8	0	1	292	0.00	30.248 
15:15	63.4	63.4	63.4	29	30.6	0	1	292	0.00	30.246 
15:20	63.2	63.2	63.2	33	33.6	0	1	292	0.00	30.246 
15:25	63.7	63.7	63.7	33	34.1	1	3	112	0.00	30.246 
15:30	63.9	63.9	63.9	32	33.5	1	5	112	0.00	30.242 
15:35	63.7	63.7	63.7	32	33.3	1	3	112	0.00	30.242 
15:40	64.5	64.5	64.5	35	36.2	0	2	112	0.00	30.242 
15:45	65.3	65.3	65.3	31	33.9	0	3	112	0.00	30.241 
15:50	65.6	65.6	65.6	29	32.5	0	3	112	0.00	30.241 
15:55	64.7	64.7	64.7	29	31.7	2	4	22	0.00	30.241 
16:00	64.7	64.7	64.7	30	32.5	0	3	292	0.00	30.240 
16:05	65.3	65.3	65.3	31	33.9	0	1	270	0.00	30.240 
16:10	65.6	65.6	65.6	29	32.5	0	2	270	0.00	30.240 
16:15	65.5	65.5	65.5	29	32.4	0	2	270	0.00	30.236 
16:20	64.7	64.7	64.7	30	32.5	0	4	270	0.00	30.236 
16:25	63.7	63.7	63.7	32	33.3	0	2	270	0.00	30.236 
16:30	64.2	64.2	64.2	32	33.7	0	3	270	0.00	30.237 
16:35	65.0	65.0	65.0	36	37.4	0	2	270	0.00	30.237 
16:40	65.5	65.5	65.5	29	32.4	1	3	270	0.00	30.237 
16:45	65.6	65.6	65.6	32	34.9	0	2	270	0.00	30.230 
16:50	65.8	65.8	65.8	29	32.7	0	3	112	0.00	30.230 
16:55	66.1	66.1	66.1	32	35.4	0	2	112	0.00	30.230 
17:00	66.4	66.4	66.4	29	33.2	0	3	338	0.00	30.232 
17:05	66.8	66.8	66.8	31	35.2	0	3	90	0.00	30.232 
17:10	66.6	66.6	66.6	29	33.3	1	3	90	0.00	30.232 
17:15	66.3	66.3	66.3	29	33.1	1	3	90	0.00	30.232 
17:20	66.1	66.1	66.1	29	32.9	1	3	112	0.00	30.232 
17:25	66.1	66.1	66.1	30	33.8	0	3	135	0.00	30.232 
17:30	66.1	66.1	66.1	28	32.0	0	3	248	0.00	30.232 
17:35	66.1	66.1	66.1	29	32.9	1	2	248	0.00	30.232 
17:40	66.0	66.0	66.0	28	32.0	0	2	248	0.00	30.232 
17:45	66.4	66.4	66.4	28	32.3	0	2	248	0.00	30.230 
17:50	66.1	66.1	66.1	28	32.0	0	2	248	0.00	30.230 
17:55	66.0	66.0	66.0	28	32.0	0	1	248	0.00	30.230 
18:00	66.0	66.0	66.0	27	31.1	0	1	248	0.00	30.233 
18:05	65.3	65.3	65.3	29	32.2	0	2	248	0.00	30.233 
18:10	64.7	64.7	64.7	30	32.5	0	1	248	0.00	30.233 
18:15	64.0	64.0	64.0	31	32.8	0	1	248	0.00	30.232 
18:20	63.5	63.5	63.5	28	29.8	0	2	248	0.00	30.232 
18:25	63.2	63.2	63.2	30	31.3	0	2	338	0.00	30.232 
18:30	62.7	62.7	62.7	32	32.4	0	2	338	0.00	30.230 
18:35	62.6	62.6	62.6	34	33.8	0	1	338	0.00	30.230 
18:40	62.4	62.4	62.4	32	32.2	0	2	45	0.00	30.230 
18:45	62.6	62.6	62.6	33	33.1	1	2	68	0.00	30.226 
18:50	62.7	62.7	62.7	32	32.4	1	3	90	0.00	30.226 
18:55	62.6	62.6	62.6	30	30.7	1	3	90	0.00	30.226 
19:00	62.4	62.4	62.4	30	30.6	0	2	90	0.00	30.228 
19:05	62.6	62.6	62.6	32	32.3	0	1	90	0.00	30.228 
19:10	62.6	62.6	62.6	31	31.5	0	2	90	0.00	30.228 
19:15	62.6	62.6	62.6	32	32.3	0	1	90	0.00	30.216 
19:20	62.4	62.4	62.4	33	32.9	0	0	---	0.00	30.216 
19:25	62.1	62.1	62.1	32	31.9	0	1	90	0.00	30.216 
19:30	61.8	61.8	61.8	33	32.4	0	1	90	0.00	30.222 
19:35	61.8	61.8	61.8	32	31.6	0	1	90	0.00	30.222 
19:40	61.8	61.8	61.8	31	30.8	0	2	90	0.00	30.222 
19:45	61.8	61.8	61.8	34	33.1	0	1	90	0.00	30.220 
19:50	61.8	61.8	61.8	34	33.1	0	1	90	0.00	30.220 
19:55	61.6	61.6	61.6	35	33.7	0	0	---	0.00	30.220 
20:00	61.5	61.5	61.5	33	32.1	0	1	90	0.00	30.219 
20:05	61.2	61.2	61.2	32	31.1	0	2	90	0.00	30.219 
20:10	61.2	61.2	61.2	32	31.1	0	1	90	0.00	30.219 
20:15	61.0	61.0	61.0	33	31.7	0	2	90	0.00	30.216 
20:20	60.7	60.7	60.7	35	32.9	0	0	---	0.00	30.216 
20:25	60.4	60.4	60.4	35	32.6	0	1	90	0.00	30.216 
20:30	60.1	60.1	60.1	36	33.1	0	0	---	0.00	30.217 
20:35	59.8	59.8	59.8	37	33.5	0	0	---	0.00	30.217 
20:40	59.5	59.5	59.5	38	33.9	0	0	---	0.00	30.217 
20:45	59.0	59.0	59.0	39	34.1	0	0	---	0.00	30.215 
20:50	58.6	58.6	58.6	38	33.1	0	1	135	0.00	30.215 
20:55	58.3	58.3	58.3	39	33.5	0	0	---	0.00	30.215 
21:00	58.0	58.0	58.0	40	33.8	0	0	---	0.00	30.216 
21:05	57.6	57.6	57.6	42	34.7	0	0	---	0.00	30.216 
21:10	57.2	57.2	57.2	43	34.9	0	0	---	0.00	30.216 
21:15	56.9	56.9	56.9	44	35.2	0	0	---	0.00	30.212 
21:20	56.5	56.5	56.5	45	35.4	0	0	---	0.00	30.212 
21:25	56.0	56.0	56.0	47	36.1	0	0	---	0.00	30.212 
21:30	55.6	55.6	55.6	47	35.7	0	0	---	0.00	30.215 
21:35	55.1	55.1	55.1	48	35.8	0	0	---	0.00	30.215 
21:40	54.7	54.7	54.7	48	35.4	0	0	---	0.00	30.215 
21:45	54.2	54.2	54.2	51	36.5	0	0	---	0.00	30.218 
21:50	53.8	53.8	53.8	53	37.1	0	0	---	0.00	30.218 
21:55	53.3	53.3	53.3	54	37.1	0	0	---	0.00	30.218 
22:00	52.9	52.9	52.9	54	36.7	0	0	---	0.00	30.220 
22:05	52.5	52.5	52.5	55	36.8	0	0	---	0.00	30.220 
22:10	52.2	52.2	52.2	57	37.4	0	0	---	0.00	30.220 
22:15	51.9	51.9	51.9	57	37.1	0	0	---	0.00	30.221 
22:20	51.4	51.4	51.4	57	36.7	0	0	---	0.00	30.221 
22:25	51.1	51.1	51.1	59	37.3	0	0	---	0.00	30.221 
22:30	50.8	50.8	50.8	61	37.8	0	0	---	0.00	30.228 
22:35	50.4	50.4	50.4	61	37.5	0	0	---	0.00	30.228 
22:40	50.2	50.2	50.2	62	37.7	0	0	---	0.00	30.228 
22:45	49.9	49.9	49.9	62	37.4	0	0	---	0.00	30.230 
22:50	49.6	49.6	49.6	63	37.5	0	0	---	0.00	30.230 
22:55	49.4	49.4	49.4	65	38.1	0	0	---	0.00	30.230 
23:00	49.1	49.1	49.1	65	37.8	0	0	---	0.00	30.227 
23:05	48.8	48.8	48.8	66	38.0	0	0	---	0.00	30.227 
23:10	48.6	48.6	48.6	67	38.1	0	0	---	0.00	30.227 
23:15	48.3	48.3	48.3	68	38.2	0	0	---	0.00	30.227 
23:20	48.2	48.2	48.2	68	38.1	0	0	---	0.00	30.227 
23:25	47.9	47.9	47.9	68	37.9	0	0	---	0.00	30.227 
23:30	47.7	47.7	47.7	68	37.7	0	0	---	0.00	30.230 
23:35	47.4	47.4	47.4	69	37.7	0	0	---	0.00	30.230 
23:40	47.3	47.3	47.3	69	37.7	0	0	---	0.00	30.230 
23:45	47.1	47.1	47.1	69	37.5	0	0	---	0.00	30.235 
23:50	46.8	46.8	46.8	70	37.5	0	0	---	0.00	30.235 
23:55	46.7	46.7	46.7	71	37.8	0	0	---	0.00	30.235 

CoCoRaHS
IN-AL-39
A2 Web Hosting
Creative Commons License
GoDaddy
search engine by freefind advanced

loaded 2018-11-20 07:03:29 • last modified 2010-11-18 10:43:29
Privacy PolicyDisclaimer
• wx.awcolley.com is powered by PmWiki v.2002016 •
• all content (unless otherwise noted) © 2018 A W Colley